Time;durP1;ratioP1;P1;durP2;ratioP2;P2;SDS_P1;SDS_P2;PMS_P1;PMS_P2;Temp;Humidity;BMP_temperature;BMP_pressure;BME280_temperature;BME280_humidity;BME280_pressure;Samples;Min_cycle;Max_cycle;Signal;HPM_P1;HPM_P2
2022/09/08 00:00:08;;;;;;;10.48;1.70;;;;;;;21.09;62.39;100037.59;4098530;29;20044;-67
2022/09/08 00:02:11;;;;;;;3.80;1.73;;;;;;;20.96;62.60;100038.97;4097719;29;20035;-68
2022/09/08 00:04:15;;;;;;;4.72;1.63;;;;;;;20.84;62.81;100035.84;4099281;28;20041;-67
2022/09/08 00:06:19;;;;;;;2.83;1.17;;;;;;;20.67;63.74;100035.56;4098117;29;20043;-68
2022/09/08 00:08:22;;;;;;;3.17;1.85;;;;;;;20.74;64.16;100030.00;4097036;29;20071;-68
2022/09/08 00:10:26;;;;;;;1.83;1.35;;;;;;;20.63;64.68;100025.97;4100109;28;20039;-68
2022/09/08 00:12:30;;;;;;;3.60;1.50;;;;;;;20.61;64.85;100030.47;4098116;28;20134;-67
2022/09/08 00:14:34;;;;;;;3.80;1.60;;;;;;;20.58;64.94;100029.63;4098922;28;20082;-67
2022/09/08 00:16:40;;;;;;;3.05;1.63;;;;;;;20.54;65.41;100029.78;4096719;28;20035;-68
2022/09/08 00:18:43;;;;;;;5.20;2.00;;;;;;;20.64;66.21;100022.44;4128940;28;20054;-67
2022/09/08 00:20:46;;;;;;;2.25;1.50;;;;;;;20.68;65.47;100024.09;4097295;28;20047;-67
2022/09/08 00:22:49;;;;;;;2.00;1.45;;;;;;;20.58;65.87;100008.50;4098033;29;20134;-67
2022/09/08 00:24:52;;;;;;;3.83;1.67;;;;;;;20.53;66.44;100010.47;4096814;28;20035;-68
2022/09/08 00:26:56;;;;;;;6.00;2.63;;;;;;;20.62;66.49;99998.72;4099191;29;20049;-67
2022/09/08 00:28:59;;;;;;;3.28;1.77;;;;;;;20.52;67.07;99992.88;4097945;28;20143;-69
2022/09/08 00:31:03;;;;;;;2.95;1.60;;;;;;;20.40;67.92;99988.88;4099543;28;20059;-67
2022/09/08 00:33:06;;;;;;;4.25;1.83;;;;;;;20.34;68.33;99993.50;4097041;28;20071;-67
2022/09/08 00:35:18;;;;;;;7.30;1.75;;;;;;;20.33;68.45;99994.44;4097288;28;20164;-67
2022/09/08 00:37:26;;;;;;;3.50;1.67;;;;;;;20.31;68.61;99993.59;4097969;29;20079;-67
2022/09/08 00:39:28;;;;;;;;;;;;;;;20.16;68.99;99995.84;4098678;29;20061;-67
2022/09/08 00:41:31;;;;;;;4.20;1.75;;;;;;;20.20;69.09;99996.63;4098373;28;19922;-67
2022/09/08 00:43:38;;;;;;;9.70;1.88;;;;;;;20.27;69.47;100002.53;4098707;29;20046;-67
2022/09/08 00:45:47;;;;;;;5.13;2.03;;;;;;;20.33;69.17;99997.94;4101411;28;20070;-67
2022/09/08 00:47:56;;;;;;;2.58;1.70;;;;;;;20.26;69.50;99996.41;4092546;28;20428;-67
2022/09/08 00:50:04;;;;;;;4.75;1.80;;;;;;;20.22;69.89;99995.66;4098953;28;20043;-67
2022/09/08 00:52:08;;;;;;;2.70;1.63;;;;;;;20.23;69.77;99997.38;4097508;29;20528;-67
2022/09/08 00:54:11;;;;;;;4.40;1.88;;;;;;;20.22;69.91;99987.75;4097138;29;20042;-67
2022/09/08 00:56:14;;;;;;;9.00;2.13;;;;;;;20.24;70.24;99992.97;4095693;29;20045;-67
2022/09/08 00:58:17;;;;;;;3.22;2.03;;;;;;;20.30;69.34;99989.25;4127902;28;20791;-67
2022/09/08 01:00:22;;;;;;;3.63;1.70;;;;;;;20.30;68.72;99978.69;4099117;28;20038;-67
2022/09/08 01:02:27;;;;;;;3.28;1.73;;;;;;;20.21;68.93;99978.09;4096516;28;20551;-67
2022/09/08 01:04:30;;;;;;;2.95;1.90;;;;;;;20.19;68.79;99974.66;4096495;28;20038;-67
2022/09/08 01:14:04;;;;;;;7.13;3.35;;;;;;;20.09;69.30;99967.91;4097295;28;20649;-67
2022/09/08 01:16:09;;;;;;;5.53;3.20;;;;;;;20.19;69.15;99964.09;4096057;28;20035;-67
2022/09/08 01:18:13;;;;;;;6.30;2.97;;;;;;;20.02;69.54;99963.78;4097832;28;20043;-67
2022/09/08 01:20:19;;;;;;;5.03;3.00;;;;;;;19.87;70.44;99976.56;4097993;29;20045;-67
2022/09/08 01:22:35;;;;;;;4.10;2.30;;;;;;;19.86;71.04;99976.63;4096355;29;20489;-67
2022/09/08 01:24:50;;;;;;;8.73;3.10;;;;;;;19.82;71.16;99974.97;4096445;29;20062;-67
2022/09/08 01:27:18;;;;;;;5.53;2.92;;;;;;;19.85;71.47;99970.44;4098476;28;20059;-67
2022/09/08 01:29:22;;;;;;;6.95;2.97;;;;;;;20.08;70.39;99955.66;4094680;29;20047;-67
2022/09/08 01:31:26;;;;;;;7.53;3.00;;;;;;;20.12;69.80;99945.84;4097415;28;20423;-67
2022/09/08 01:33:29;;;;;;;7.53;3.13;;;;;;;20.10;70.09;99945.91;4096713;28;20043;-67
2022/09/08 01:35:35;;;;;;;7.18;3.00;;;;;;;19.97;70.60;99929.63;4095242;28;20082;-68
2022/09/08 01:37:38;;;;;;;4.25;3.15;;;;;;;19.83;70.72;99919.53;4129154;28;20034;-68
2022/09/08 01:39:41;;;;;;;5.47;3.08;;;;;;;19.82;70.77;99923.06;4097271;28;20039;-68
2022/09/08 01:41:44;;;;;;;8.68;3.35;;;;;;;19.91;69.99;99921.91;4099231;28;20039;-67
2022/09/08 01:43:48;;;;;;;8.30;3.50;;;;;;;19.77;70.51;99922.34;4099962;28;21096;-67
2022/09/08 01:45:51;;;;;;;5.03;2.95;;;;;;;19.69;71.05;99916.44;4100256;28;20055;-67
2022/09/08 01:47:54;;;;;;;6.93;3.45;;;;;;;19.76;70.56;99912.69;4101291;29;20073;-67
2022/09/08 01:49:57;;;;;;;7.95;3.38;;;;;;;19.73;70.45;99906.63;4101430;29;20497;-67
2022/09/08 01:52:00;;;;;;;4.28;2.58;;;;;;;19.72;70.17;99900.50;4099652;29;20094;-67
2022/09/08 01:54:03;;;;;;;7.57;3.40;;;;;;;19.77;70.10;99893.34;4098190;29;20409;-67
2022/09/08 01:56:07;;;;;;;5.75;3.03;;;;;;;19.77;70.33;99898.59;4099501;28;20047;-67
2022/09/08 01:58:10;;;;;;;4.20;2.53;;;;;;;19.71;69.99;99898.78;4100272;28;20453;-68
2022/09/08 02:00:14;;;;;;;4.10;2.17;;;;;;;19.67;70.53;99897.19;4098859;28;20042;-67
2022/09/08 02:02:17;;;;;;;5.97;2.80;;;;;;;19.62;70.65;99902.59;4100681;29;20043;-67
2022/09/08 02:04:20;;;;;;;6.40;2.58;;;;;;;19.67;71.78;99899.81;4100101;28;20035;-67
2022/09/08 02:06:23;;;;;;;3.97;2.63;;;;;;;19.66;71.57;99901.56;4130318;28;20061;-67
2022/09/08 02:08:26;;;;;;;3.97;2.45;;;;;;;19.61;71.98;99918.44;4096842;28;20043;-67
2022/09/08 02:10:29;;;;;;;4.90;2.70;;;;;;;19.57;72.94;99925.63;4100819;29;20195;-67
2022/09/08 02:12:32;;;;;;;4.93;2.80;;;;;;;19.50;72.55;99929.34;4099382;29;20035;-67
2022/09/08 02:14:35;;;;;;;3.00;1.98;;;;;;;19.45;73.24;99944.44;4097923;29;20043;-67
2022/09/08 02:16:39;;;;;;;8.15;3.10;;;;;;;19.48;72.90;99939.94;4100043;29;20462;-67
2022/09/08 02:18:42;;;;;;;5.22;2.97;;;;;;;19.44;73.01;99938.31;4100127;29;20390;-67
2022/09/08 02:20:45;;;;;;;4.75;3.17;;;;;;;19.38;73.28;99925.31;4099873;28;20126;-67
2022/09/08 02:22:48;;;;;;;5.22;3.55;;;;;;;19.42;73.70;99916.41;4098345;29;20049;-67
2022/09/08 02:24:51;;;;;;;5.45;2.83;;;;;;;19.44;73.42;99917.22;4097543;28;20532;-67
2022/09/08 02:26:54;;;;;;;5.70;3.67;;;;;;;19.39;73.68;99915.63;4099663;28;20039;-67
2022/09/08 02:28:58;;;;;;;6.13;3.05;;;;;;;19.28;74.29;99921.25;4099659;28;20044;-68
2022/09/08 02:31:02;;;;;;;6.93;3.28;;;;;;;19.32;74.67;99930.78;4098557;29;20043;-68
2022/09/08 02:33:07;;;;;;;6.85;3.35;;;;;;;19.36;74.45;99928.00;4098925;28;20119;-67
2022/09/08 02:35:10;;;;;;;5.63;3.08;;;;;;;19.35;74.78;99933.31;4096007;28;21613;-67
2022/09/08 02:37:13;;;;;;;5.65;3.40;;;;;;;19.31;74.60;99924.63;4097996;28;20043;-67
2022/09/08 02:39:17;;;;;;;6.20;3.53;;;;;;;19.43;74.68;99925.19;4098772;28;20047;-67
2022/09/08 02:41:20;;;;;;;4.50;3.30;;;;;;;19.53;74.28;99911.66;4099133;28;20434;-66
2022/09/08 02:43:23;;;;;;;4.72;3.20;;;;;;;19.50;74.63;99910.91;4098469;28;20039;-67
2022/09/08 02:45:26;;;;;;;5.78;3.95;;;;;;;19.52;75.00;99927.50;4095794;28;20078;-67
2022/09/08 02:47:29;;;;;;;7.25;3.63;;;;;;;19.57;74.61;99932.66;4098444;28;20552;-67
2022/09/08 02:49:34;;;;;;;5.70;3.35;;;;;;;19.59;74.39;99931.69;4098908;29;20402;-66
2022/09/08 02:51:36;;;;;;;;;;;;;;;19.43;75.40;99928.66;4099910;28;20043;-67
2022/09/08 02:53:41;;;;;;;10.15;4.75;;;;;;;19.56;74.90;99925.66;4098661;28;19922;-67
2022/09/08 02:55:44;;;;;;;13.98;3.97;;;;;;;19.72;72.98;99916.34;4097526;29;20589;-67
2022/09/08 02:57:46;;;;;;;9.55;4.20;;;;;;;19.78;72.71;99908.25;4099321;29;20106;-67
2022/09/08 02:59:49;;;;;;;8.02;3.33;;;;;;;19.66;72.66;99912.13;4099349;29;20040;-67
2022/09/08 03:01:52;;;;;;;6.15;3.50;;;;;;;19.38;74.33;99912.16;4099250;28;20066;-67
2022/09/08 03:03:55;;;;;;;6.78;3.47;;;;;;;19.27;75.31;99912.44;4098867;29;20122;-68
2022/09/08 03:05:59;;;;;;;9.18;3.10;;;;;;;19.28;75.86;99926.50;4055929;29;1201542;-67
2022/09/08 03:08:04;;;;;;;5.15;3.20;;;;;;;19.29;75.64;99928.22;4094568;28;20035;-67
2022/09/08 03:10:08;;;;;;;7.68;3.35;;;;;;;19.29;75.88;99933.50;4100120;28;20090;-67
2022/09/08 03:12:10;;;;;;;7.50;3.47;;;;;;;19.17;76.26;99951.41;4097134;29;20035;-68
2022/09/08 03:14:13;;;;;;;7.22;3.80;;;;;;;19.23;75.76;99944.22;4101659;28;20050;-68
2022/09/08 03:16:16;;;;;;;7.20;3.60;;;;;;;19.45;74.42;99924.22;4096349;29;20053;-68
2022/09/08 03:18:19;;;;;;;7.72;2.95;;;;;;;19.27;74.86;99927.41;4099246;28;20039;-69
2022/09/08 03:20:23;;;;;;;11.68;4.88;;;;;;;19.31;75.29;99916.72;4130797;28;20100;-69
2022/09/08 03:22:28;;;;;;;10.65;4.53;;;;;;;19.37;73.87;99913.03;4099477;28;20130;-69
2022/09/08 03:24:32;;;;;;;8.10;3.90;;;;;;;19.42;73.34;99905.88;4097678;29;20050;-69
2022/09/08 03:26:35;;;;;;;9.05;3.78;;;;;;;19.26;74.09;99909.88;4099305;29;20134;-69
2022/09/08 03:28:39;;;;;;;7.15;3.92;;;;;;;19.18;74.53;99900.41;4100075;28;20512;-68
2022/09/08 03:30:42;;;;;;;6.73;3.33;;;;;;;19.10;75.57;99905.09;4098625;29;20106;-69
2022/09/08 03:32:46;;;;;;;8.52;3.38;;;;;;;18.97;76.98;99923.00;4100132;28;20382;-69
2022/09/08 03:34:49;;;;;;;;;;;;;;;18.89;77.15;99924.16;4098419;29;20122;-69
2022/09/08 03:36:52;;;;;;;11.20;4.55;;;;;;;18.92;77.15;99924.06;4096972;28;19926;-68
2022/09/08 03:38:56;;;;;;;9.27;4.60;;;;;;;19.15;75.78;99916.31;4099265;28;20066;-69
2022/09/08 03:41:00;;;;;;;7.93;4.57;;;;;;;19.12;76.22;99908.53;4097456;29;20043;-70
2022/09/08 03:43:02;;;;;;;10.23;5.03;;;;;;;19.20;75.77;99908.28;4099567;28;20031;-68
2022/09/08 03:45:08;;;;;;;10.43;4.90;;;;;;;19.18;76.03;99907.47;4111484;28;20035;-69
2022/09/08 03:47:11;;;;;;;9.65;4.57;;;;;;;19.30;75.46;99908.88;4098749;28;20035;-69
2022/09/08 03:49:13;;;;;;;8.25;4.10;;;;;;;19.26;75.26;99899.31;4098257;28;20086;-68
2022/09/08 03:51:22;;;;;;;7.47;3.92;;;;;;;19.21;75.86;99890.72;4101737;28;20647;-68
2022/09/08 03:53:24;;;;;;;9.13;4.45;;;;;;;19.21;75.85;99894.19;4100089;28;20039;-68
2022/09/08 03:55:29;;;;;;;7.43;5.15;;;;;;;19.29;75.67;99884.31;4100603;28;20515;-68
2022/09/08 03:57:32;;;;;;;6.43;4.35;;;;;;;19.22;75.92;99884.53;4099204;29;20043;-68
2022/09/08 03:59:35;;;;;;;8.07;5.00;;;;;;;19.27;76.18;99885.25;4101319;28;20552;-68
2022/09/08 04:01:38;;;;;;;8.27;5.20;;;;;;;19.31;75.55;99881.63;4106802;28;20062;-68
2022/09/08 04:03:41;;;;;;;9.97;5.37;;;;;;;19.30;75.49;99872.84;4098985;28;20040;-68
2022/09/08 04:05:47;;;;;;;9.30;4.45;;;;;;;19.25;75.94;99877.38;4098184;28;20047;-68
2022/09/08 04:07:50;;;;;;;8.85;5.50;;;;;;;19.25;76.23;99869.47;4132789;28;20043;-68
2022/09/08 04:09:54;;;;;;;7.32;4.82;;;;;;;19.26;76.22;99870.34;4129510;28;20222;-68
2022/09/08 04:11:58;;;;;;;10.90;5.95;;;;;;;19.26;76.72;99862.44;4101357;28;20042;-69
2022/09/08 04:14:01;;;;;;;6.90;4.68;;;;;;;19.23;76.71;99873.06;4101687;28;20453;-69
2022/09/08 04:16:04;;;;;;;10.00;5.68;;;;;;;19.25;76.45;99872.13;4097203;28;20121;-68
2022/09/08 04:18:07;;;;;;;5.75;4.07;;;;;;;19.25;76.83;99876.53;4115910;28;20042;-68
2022/09/08 04:20:13;;;;;;;6.10;4.50;;;;;;;19.22;77.29;99882.75;4082737;29;20039;-70
2022/09/08 04:22:16;;;;;;;6.97;4.70;;;;;;;19.24;76.90;99880.06;4094552;28;20043;-68
2022/09/08 04:24:19;;;;;;;7.90;4.43;;;;;;;19.28;77.25;99881.72;4094074;28;20036;-68
2022/09/08 04:26:21;;;;;;;8.10;4.40;;;;;;;19.23;76.45;99878.34;4119873;28;20042;-68
2022/09/08 04:28:26;;;;;;;8.43;4.57;;;;;;;19.20;76.97;99892.47;4099499;28;20035;-68
2022/09/08 04:30:29;;;;;;;7.68;5.28;;;;;;;19.00;78.04;99898.38;4096875;29;20075;-69
2022/09/08 04:32:34;;;;;;;8.15;5.10;;;;;;;18.83;78.80;99915.47;4096589;28;20035;-69
2022/09/08 04:34:37;;;;;;;7.25;5.15;;;;;;;18.77;79.11;99915.66;4095928;29;20049;-68
2022/09/08 04:36:41;;;;;;;8.60;4.30;;;;;;;18.59;78.64;99918.81;4112577;28;20043;-68
2022/09/08 04:38:44;;;;;;;6.80;4.50;;;;;;;18.50;79.17;99925.19;4098387;29;20066;-69
2022/09/08 04:40:47;;;;;;;8.18;4.43;;;;;;;18.42;79.45;99920.13;4099680;28;20102;-69
2022/09/08 04:42:49;;;;;;;8.02;5.50;;;;;;;18.47;79.39;99896.28;4097560;28;20039;-68
2022/09/08 04:44:54;;;;;;;5.47;3.67;;;;;;;18.60;78.77;99896.81;4083596;29;20060;-69
2022/09/08 04:46:56;;;;;;;7.97;4.28;;;;;;;18.64;78.86;99891.44;4128515;28;20050;-69
2022/09/08 04:49:00;;;;;;;7.53;3.88;;;;;;;18.79;78.13;99879.63;4097467;28;20558;-69
2022/09/08 04:51:04;;;;;;;5.32;3.50;;;;;;;18.83;78.25;99883.84;4099611;28;20454;-68
2022/09/08 04:53:07;;;;;;;5.30;4.00;;;;;;;18.95;77.77;99871.28;4099555;28;20043;-68
2022/09/08 04:55:11;;;;;;;8.93;4.25;;;;;;;18.96;76.98;99873.88;4099306;29;20043;-68
2022/09/08 04:57:15;;;;;;;6.28;4.53;;;;;;;18.98;76.79;99868.53;4096734;28;20043;-68
2022/09/08 04:59:18;;;;;;;6.18;3.90;;;;;;;18.96;76.86;99859.84;4097985;28;20665;-68
2022/09/08 05:01:25;;;;;;;5.82;3.30;;;;;;;18.95;77.25;99871.28;4097675;29;20055;-68
2022/09/08 05:03:28;;;;;;;6.35;3.75;;;;;;;18.93;77.44;99873.97;4090450;28;20047;-68
2022/09/08 05:05:31;;;;;;;9.70;4.35;;;;;;;18.94;77.31;99882.72;4126728;28;20105;-68
2022/09/08 05:07:34;;;;;;;5.50;3.42;;;;;;;18.92;78.01;99877.50;4095822;28;20035;-68
2022/09/08 05:09:36;;;;;;;4.68;3.45;;;;;;;18.92;77.75;99879.28;4094629;29;20066;-68
2022/09/08 05:11:39;;;;;;;7.30;3.13;;;;;;;18.91;77.56;99885.44;4096866;28;20082;-68
2022/09/08 05:13:42;;;;;;;7.13;3.63;;;;;;;18.90;77.44;99887.22;4091697;29;20031;-67
2022/09/08 05:15:45;;;;;;;4.80;2.42;;;;;;;18.90;77.36;99907.44;4093373;29;20488;-68
2022/09/08 05:17:49;;;;;;;3.70;2.65;;;;;;;18.91;77.38;99920.56;4128855;28;20068;-68
2022/09/08 05:19:52;;;;;;;6.22;2.92;;;;;;;18.91;77.30;99924.94;4097035;28;20031;-68
2022/09/08 05:21:55;;;;;;;5.43;2.83;;;;;;;18.89;77.39;99926.78;4095936;29;20051;-68
2022/09/08 05:24:00;;;;;;;5.47;2.90;;;;;;;18.90;78.11;99924.09;4092274;28;20047;-68
2022/09/08 05:26:06;;;;;;;;;;;;;;;18.78;78.08;99937.59;4096767;28;20432;-68
2022/09/08 05:28:09;;;;;;;4.88;2.78;;;;;;;18.72;78.80;99971.97;4099283;28;20455;-67
2022/09/08 05:30:12;;;;;;;6.57;3.42;;;;;;;18.72;78.78;99974.59;4095810;28;20043;-67
2022/09/08 05:32:15;;;;;;;7.03;4.13;;;;;;;18.66;78.85;99976.53;4125967;28;20460;-68
2022/09/08 05:34:19;;;;;;;12.27;4.78;;;;;;;18.60;78.78;99971.44;4113650;28;20067;-68
2022/09/08 05:36:24;;;;;;;8.65;4.13;;;;;;;18.47;79.36;99975.25;4098239;28;20047;-68
2022/09/08 05:38:28;;;;;;;6.80;4.45;;;;;;;18.48;79.44;99975.22;4097651;28;20035;-68
2022/09/08 05:40:35;;;;;;;10.13;5.70;;;;;;;18.52;79.78;99980.44;4129850;28;20042;-68
2022/09/08 05:42:39;;;;;;;13.50;5.00;;;;;;;18.45;80.26;99990.25;4097227;29;20116;-68
2022/09/08 05:44:41;;;;;;;12.45;4.80;;;;;;;18.41;80.38;99996.47;4110022;28;20138;-68
2022/09/08 05:46:45;;;;;;;5.72;3.70;;;;;;;18.41;80.35;99992.09;4095949;28;20035;-68
2022/09/08 05:48:48;;;;;;;8.23;4.30;;;;;;;18.51;80.20;99999.75;4098107;28;20098;-68
2022/09/08 05:50:52;;;;;;;8.15;4.05;;;;;;;18.58;79.68;99998.69;4098229;29;20568;-68
2022/09/08 05:52:55;;;;;;;9.40;4.32;;;;;;;18.61;79.71;99998.59;4092169;28;20490;-68
2022/09/08 05:54:57;;;;;;;7.85;3.70;;;;;;;18.64;79.14;100003.78;4097178;29;20434;-68
2022/09/08 05:57:00;;;;;;;10.35;3.85;;;;;;;18.55;79.11;100004.91;4092618;28;20445;-68
2022/09/08 05:59:03;;;;;;;7.75;3.00;;;;;;;18.50;79.47;100006.78;4098220;28;20059;-68
2022/09/08 06:01:10;;;;;;;8.25;3.75;;;;;;;18.53;79.33;100005.81;4097047;29;20497;-68
2022/09/08 06:03:12;;;;;;;7.53;2.95;;;;;;;18.46;78.92;100013.03;4096585;29;20122;-68
2022/09/08 06:05:16;;;;;;;9.20;3.33;;;;;;;18.43;78.99;100011.34;4098789;28;20094;-68
2022/09/08 06:07:20;;;;;;;5.93;2.85;;;;;;;18.39;79.17;100014.94;4095857;29;20063;-68
2022/09/08 06:09:23;;;;;;;8.77;2.60;;;;;;;18.35;79.23;100015.06;4094597;28;20044;-68
2022/09/08 06:11:27;;;;;;;5.72;3.30;;;;;;;18.32;79.52;100018.63;4095450;28;20035;-68
2022/09/08 06:13:30;;;;;;;3.15;2.20;;;;;;;18.32;79.44;100021.25;4095768;28;20130;-68
2022/09/08 06:15:33;;;;;;;3.65;1.83;;;;;;;18.36;79.25;100030.81;4093339;28;20062;-68
2022/09/08 06:17:36;;;;;;;2.67;1.98;;;;;;;18.39;78.45;100024.63;4099223;28;21894;-68
2022/09/08 06:19:39;;;;;;;4.95;2.00;;;;;;;18.39;78.75;100033.38;4126690;28;20038;-68
2022/09/08 06:21:42;;;;;;;2.60;1.58;;;;;;;18.34;77.64;100037.00;4092767;28;20478;-68
2022/09/08 06:23:50;;;;;;;4.85;1.50;;;;;;;18.36;77.47;100037.88;4093556;28;20042;-67
2022/09/08 06:25:52;;;;;;;4.07;1.50;;;;;;;18.36;77.60;100035.22;4095864;28;20512;-68
2022/09/08 06:28:00;;;;;;;2.97;1.75;;;;;;;18.43;78.10;100032.41;4092283;28;20047;-68
2022/09/08 06:30:08;;;;;;;2.30;1.60;;;;;;;18.46;77.39;100042.84;4099304;28;20039;-68
2022/09/08 06:32:22;;;;;;;3.03;1.75;;;;;;;18.48;77.58;100046.28;4084426;29;20047;-68
2022/09/08 06:34:29;;;;;;;5.07;1.80;;;;;;;18.58;77.48;100052.19;4101454;28;20044;-61
2022/09/08 06:36:40;;;;;;;5.35;1.52;;;;;;;18.93;76.83;100046.94;4101703;28;20043;-62
2022/09/08 06:38:49;;;;;;;7.40;1.60;;;;;;;19.34;74.93;100042.28;4097513;28;20072;-61
2022/09/08 06:41:05;;;;;;;1.92;0.98;;;;;;;19.54;73.50;100041.72;4099467;29;20062;-61
2022/09/08 06:43:16;;;;;;;3.85;1.58;;;;;;;19.72;72.79;100042.94;4094969;28;20505;-62
2022/09/08 06:45:23;;;;;;;4.38;1.50;;;;;;;19.83;72.00;100046.16;4097747;29;20083;-62
2022/09/08 06:47:34;;;;;;;1.60;1.20;;;;;;;19.94;71.21;100044.94;4101111;28;20047;-62
2022/09/08 06:49:37;;;;;;;4.45;1.30;;;;;;;19.97;71.29;100048.34;4127700;28;20571;-62
2022/09/08 06:51:43;;;;;;;2.17;1.10;;;;;;;20.07;70.83;100042.78;4093113;28;20457;-62
2022/09/08 06:53:57;;;;;;;3.45;1.00;;;;;;;20.18;70.33;100045.94;4092888;29;20110;-62
2022/09/08 06:56:10;;;;;;;3.37;1.17;;;;;;;20.25;69.76;100036.06;4088449;28;20066;-62
2022/09/08 06:58:34;;;;;;;2.40;0.90;;;;;;;20.14;70.41;100039.06;4128327;28;20443;-62
2022/09/08 07:00:45;;;;;;;3.35;1.17;;;;;;;20.02;70.47;100040.31;4131892;28;20131;-62
2022/09/08 07:03:03;;;;;;;3.78;1.42;;;;;;;19.73;71.38;100041.16;4082557;29;20726;-61
2022/09/08 07:05:17;;;;;;;3.42;1.30;;;;;;;19.59;71.80;100037.16;4098660;28;20046;-68
2022/09/08 07:07:25;;;;;;;3.20;1.33;;;;;;;19.36;72.54;100035.19;4097389;29;20043;-68
2022/09/08 07:09:35;;;;;;;4.35;1.23;;;;;;;19.17;73.30;100032.22;4101070;28;20094;-68
2022/09/08 07:11:48;;;;;;;1.80;1.15;;;;;;;19.11;73.10;100035.88;4101165;28;20036;-68
2022/09/08 07:14:02;;;;;;;1.20;1.02;;;;;;;18.90;73.84;100047.91;4098414;29;20050;-68
2022/09/08 07:16:12;;;;;;;3.92;1.40;;;;;;;18.83;73.96;100044.50;4098681;29;20437;-68
2022/09/08 07:18:21;;;;;;;0.77;0.77;;;;;;;18.76;75.16;100053.50;4095244;29;20031;-68
2022/09/08 07:20:26;;;;;;;1.38;1.00;;;;;;;18.77;74.06;100036.78;4090580;28;20054;-68
2022/09/08 07:22:36;;;;;;;1.77;1.10;;;;;;;18.67;74.80;100048.47;4109129;28;20174;-68
2022/09/08 07:24:47;;;;;;;1.08;0.80;;;;;;;18.70;74.30;100051.00;4126557;28;20042;-68
2022/09/08 07:26:56;;;;;;;2.47;0.80;;;;;;;18.67;75.08;100059.00;4094498;28;20055;-68
2022/09/08 07:29:06;;;;;;;3.03;1.40;;;;;;;18.70;75.09;100058.91;4099176;28;20125;-67
2022/09/08 07:31:18;;;;;;;2.13;0.98;;;;;;;18.65;74.49;100052.91;4099440;29;20043;-68
2022/09/08 07:33:25;;;;;;;1.25;0.82;;;;;;;18.60;74.83;100067.94;4098196;28;20501;-68
2022/09/08 07:35:51;;;;;;;1.77;1.27;;;;;;;18.55;74.98;100075.13;4100217;29;20083;-67
2022/09/08 07:37:57;;;;;;;1.50;1.00;;;;;;;18.59;75.00;100068.88;4097675;28;20091;-68
2022/09/08 07:40:05;;;;;;;1.60;1.02;;;;;;;18.54;75.07;100076.88;4098856;29;20047;-67
2022/09/08 07:42:15;;;;;;;0.80;0.80;;;;;;;18.54;75.24;100076.00;4095453;28;20041;-67
2022/09/08 07:44:22;;;;;;;2.72;0.90;;;;;;;18.51;75.45;100086.63;4107612;28;20038;-67
2022/09/08 07:46:39;;;;;;;1.40;0.80;;;;;;;18.36;75.53;100087.88;4093772;28;20533;-68
2022/09/08 07:48:51;;;;;;;0.60;0.60;;;;;;;18.37;75.59;100087.81;4095802;29;20054;-67
2022/09/08 07:51:04;;;;;;;2.10;1.00;;;;;;;18.44;76.07;100092.03;4096884;29;20043;-67
2022/09/08 07:53:39;;;;;;;1.15;0.82;;;;;;;18.46;76.24;100092.00;4094308;28;20121;-67
2022/09/08 07:55:43;;;;;;;1.35;0.80;;;;;;;18.44;76.32;100094.69;4096887;29;20051;-67
2022/09/08 07:57:57;;;;;;;1.27;1.08;;;;;;;18.40;76.25;100089.50;4095253;29;20043;-68
2022/09/08 08:00:05;;;;;;;2.47;1.13;;;;;;;18.45;76.66;100099.00;4132638;28;20043;-67
2022/09/08 08:02:28;;;;;;;1.10;0.80;;;;;;;18.55;75.94;100090.91;4095003;29;20066;-67
2022/09/08 08:04:55;;;;;;;4.13;1.10;;;;;;;18.68;75.71;100102.88;4089290;28;20051;-67
2022/09/08 08:07:04;;;;;;;2.70;1.00;;;;;;;18.82;75.52;100108.66;4102019;28;20046;-67
2022/09/08 08:09:34;;;;;;;2.22;1.35;;;;;;;18.96;75.30;100110.09;4084732;29;20050;-67
2022/09/08 08:12:06;;;;;;;1.10;1.00;;;;;;;19.06;74.85;100102.81;4097363;29;20043;-68
2022/09/08 08:14:36;;;;;;;2.22;1.17;;;;;;;19.22;74.64;100111.19;4093512;29;20039;-67
2022/09/08 08:16:50;;;;;;;24.42;14.32;;;;;;;19.34;74.80;100109.03;4098074;28;20648;-68
2022/09/08 08:19:03;;;;;;;4.03;1.50;;;;;;;19.37;74.41;100121.28;4094431;29;20378;-68
2022/09/08 08:21:14;;;;;;;2.70;1.23;;;;;;;19.40;74.26;100128.25;4099886;29;20509;-68
2022/09/08 08:23:36;;;;;;;0.80;0.80;;;;;;;19.22;73.89;100122.56;4095057;28;20039;-68
2022/09/08 08:25:47;;;;;;;1.80;1.10;;;;;;;19.13;74.55;100128.97;4098836;29;20039;-70
2022/09/08 08:28:03;;;;;;;2.17;1.17;;;;;;;19.10;73.46;100123.78;4095833;28;20046;-69
2022/09/08 08:30:19;;;;;;;2.97;1.30;;;;;;;19.07;73.46;100128.25;4090160;29;20051;-69
2022/09/08 08:32:27;;;;;;;3.63;1.30;;;;;;;18.91;73.01;100133.03;4095244;28;20113;-69
2022/09/08 08:34:49;;;;;;;1.30;1.00;;;;;;;18.78;73.17;100132.47;4098229;29;20520;-69
2022/09/08 08:36:57;;;;;;;2.03;1.10;;;;;;;18.80;72.73;100131.50;4093492;28;20110;-69
2022/09/08 08:39:10;;;;;;;1.50;1.13;;;;;;;18.89;72.75;100140.13;4095124;29;20039;-69
2022/09/08 08:41:26;;;;;;;1.50;1.00;;;;;;;18.94;73.33;100144.38;4093136;29;22787;-70
2022/09/08 08:44:01;;;;;;;3.07;1.10;;;;;;;18.97;72.88;100139.03;4112905;28;20047;-69
2022/09/08 08:46:15;;;;;;;;;;;;;;;18.80;73.34;100142.03;4089621;29;20089;-69
2022/09/08 08:48:34;;;;;;;1.98;1.38;;;;;;;19.10;73.42;100138.69;4098719;28;19922;-69
2022/09/08 08:51:14;;;;;;;2.55;1.23;;;;;;;19.17;73.48;100143.78;4093760;28;20051;-69
2022/09/08 08:53:42;;;;;;;3.33;1.10;;;;;;;19.21;73.60;100141.06;4105504;28;20035;-69
2022/09/08 08:56:17;;;;;;;4.85;1.17;;;;;;;19.09;73.31;100142.25;4095827;29;20047;-69
2022/09/08 08:58:43;;;;;;;2.60;1.10;;;;;;;19.12;73.47;100143.03;4095183;28;20047;-69
2022/09/08 09:00:54;;;;;;;1.83;0.80;;;;;;;19.10;73.27;100147.47;4094490;29;20043;-69
2022/09/08 09:03:32;;;;;;;2.05;1.00;;;;;;;19.11;73.56;100141.28;4094388;28;20043;-69
2022/09/08 09:05:51;;;;;;;3.97;0.93;;;;;;;19.23;73.09;100150.66;4095899;29;20042;-69
2022/09/08 09:08:24;;;;;;;3.90;1.00;;;;;;;19.49;73.75;100136.78;4105816;28;20067;-69
2022/09/08 09:10:48;;;;;;;4.47;0.82;;;;;;;19.67;71.32;100139.81;4086481;29;20564;-70
2022/09/08 09:13:08;;;;;;;2.65;0.82;;;;;;;19.68;71.64;100141.50;4093552;29;20311;-69
2022/09/08 09:15:27;;;;;;;3.15;1.10;;;;;;;19.69;71.53;100138.81;4096489;28;20106;-69
2022/09/08 09:18:25;;;;;;;3.10;1.48;;;;;;;19.90;71.63;100146.19;4095275;29;20043;-69
2022/09/08 09:20:42;;;;;;;1.67;0.70;;;;;;;19.88;68.90;100135.69;4097658;28;20090;-69
2022/09/08 09:22:53;;;;;;;2.58;0.95;;;;;;;19.71;69.83;100149.34;4099274;28;20050;-69
2022/09/08 09:25:12;;;;;;;4.80;0.90;;;;;;;19.45;69.08;100166.78;4095558;29;20043;-70
2022/09/08 09:27:30;;;;;;;1.98;0.88;;;;;;;19.34;67.44;100159.13;4088738;29;20516;-69
2022/09/08 09:30:02;;;;;;;0.63;0.63;;;;;;;19.24;67.03;100162.06;4099129;29;20059;-69
2022/09/08 09:32:25;;;;;;;1.95;0.90;;;;;;;18.99;64.74;100163.56;4120824;28;20050;-70
2022/09/08 09:35:13;;;;;;;0.75;0.75;;;;;;;19.17;66.55;100161.34;4095055;29;20047;-69
2022/09/08 09:37:46;;;;;;;2.75;1.00;;;;;;;19.39;64.46;100158.16;4096872;28;20035;-70
2022/09/08 09:40:08;;;;;;;1.58;0.90;;;;;;;19.41;63.08;100162.47;4091285;29;20142;-70
2022/09/08 09:42:41;;;;;;;1.73;0.90;;;;;;;19.68;62.18;100158.22;4097684;29;20051;-70
2022/09/08 09:45:17;;;;;;;1.50;0.80;;;;;;;19.79;61.56;100159.72;4083305;29;20111;-70
2022/09/08 09:47:28;;;;;;;4.80;0.95;;;;;;;19.69;61.54;100156.44;4096106;29;20060;-70
2022/09/08 09:49:49;;;;;;;2.67;0.65;;;;;;;19.67;61.02;100156.47;4098458;28;20079;-70
2022/09/08 09:52:02;;;;;;;2.30;1.00;;;;;;;19.74;61.17;100159.78;4092747;29;20610;-70
2022/09/08 09:54:26;;;;;;;0.50;0.50;;;;;;;19.91;59.80;100169.06;4092423;29;20686;-71
2022/09/08 09:57:05;;;;;;;1.35;0.60;;;;;;;20.15;60.42;100159.53;4096890;28;20485;-70
2022/09/08 10:00:03;;;;;;;2.60;1.20;;;;;;;20.33;58.90;100168.69;4095096;29;20039;-70
2022/09/08 10:02:46;;;;;;;2.72;0.63;;;;;;;20.43;58.17;100172.75;4100455;28;20053;-70
2022/09/08 10:05:25;;;;;;;6.80;0.80;;;;;;;20.58;59.91;100161.69;4100321;28;20066;-70
2022/09/08 10:08:04;;;;;;;1.83;0.80;;;;;;;20.67;58.87;100155.28;4082145;28;20407;-71
2022/09/08 10:10:40;;;;;;;2.88;0.70;;;;;;;20.79;59.46;100159.28;4101153;29;20043;-70